You are not logged in, Click here to log in
洛杉磯國際機場LAX / KLAX 美國加州大洛杉磯地區
ICAO: KLAX Country: 美國加州大洛杉磯地區
Latitude: 33.9416 Longitude: -118.409
Total Arrivals: 43 Total Departures: 32
Latest Arrival: CI8 (RCTP-KLAX)CHANG SHENG. HSIUNG Latest Departure: CI5117 (KLAX-RCTP)CHANG SHENG. HSIUNG
Scenery:
METAR : KLAX 190415Z 24005KT 9SM OVC009 16/12 A3000

洛杉磯國際機場LAX

You are accessing this site from IP address 35.175.113.29. Virtual Airline. CMS by phpVMS.Website designed by Zumeweb and edited by Theo Bearman.
There is 0 User(s) Online: | and 4 Guest(s) Online.
All information on this site is for fight simulation purposes only. This site is for flight logging for pilots of Virtual Airline&模擬飛行論壇 FlySim only.